Terminal Aerodrome Forecast
Issued by NWS

Home | Current Version | Previous Version | Text Only | Print | Product List | Glossary On
Versions: 1 2 3 4 5 6 7 8 9 10 11 12 13 14 15 16 17 18
000
FTUS46 KSGX 021141
TAFCRQ
TAF
KCRQ 021141Z 0212/0312 11005KT P6SM -SHRA SCT025 BKN035
     FM021700 14007KT P6SM -SHRA VCTS SCT025 BKN040CB
      TEMPO 0217/0220 4SM RA BKN020
     FM022000 22011KT P6SM VCSH SCT030 BKN040
     FM030200 VRB05KT P6SM VCSH FEW025 BKN060=

USA.gov is the U.S. government's official web portal to all federal, state and local government web resources and services.